Time;durP1;ratioP1;P1;durP2;ratioP2;P2;SDS_P1;SDS_P2;PMS_P1;PMS_P2;Temp;Humidity;BMP_temperature;BMP_pressure;BME280_temperature;BME280_humidity;BME280_pressure;Samples;Min_cycle;Max_cycle;Signal;HPM_P1;HPM_P2
2021/05/16 00:00:35;;;;;;;10.23;9.32;;;;;;;;;;5133488;28;20374;-75
2021/05/16 00:03:01;;;;;;;10.55;9.55;;;;;;;;;;5133909;28;20192;-75
2021/05/16 00:05:27;;;;;;;10.40;9.10;;;;;;;;;;5125915;28;20554;-77
2021/05/16 00:07:53;;;;;;;9.57;8.75;;;;;;;;;;5126777;28;20458;-76
2021/05/16 00:10:20;;;;;;;9.60;8.70;;;;;;;;;;5115700;28;20196;-76
2021/05/16 00:12:47;;;;;;;9.25;8.45;;;;;;;;;;5130862;27;20288;-74
2021/05/16 00:15:15;;;;;;;9.40;8.50;;;;;;;;;;5126254;27;20641;-74
2021/05/16 00:17:42;;;;;;;8.23;7.53;;;;;;;;;;5137719;27;20181;-74
2021/05/16 00:20:09;;;;;;;8.60;7.85;;;;;;;;;;5138112;27;20197;-75
2021/05/16 00:22:36;;;;;;;8.68;7.80;;;;;;;;;;5118364;27;20185;-74
2021/05/16 00:25:03;;;;;;;9.40;8.70;;;;;;;;;;5117157;27;20179;-76
2021/05/16 00:27:29;;;;;;;9.13;7.65;;;;;;;;;;5119615;27;20210;-76
2021/05/16 00:29:55;;;;;;;8.30;7.65;;;;;;;;;;5117394;28;20198;-76
2021/05/16 00:32:21;;;;;;;8.43;7.73;;;;;;;;;;5136675;27;20177;-75
2021/05/16 00:34:47;;;;;;;8.43;7.80;;;;;;;;;;5123929;27;20429;-76
2021/05/16 00:37:13;;;;;;;8.37;7.67;;;;;;;;;;5122645;27;20460;-74
2021/05/16 00:39:39;;;;;;;7.23;6.63;;;;;;;;;;5115380;27;20472;-76
2021/05/16 00:42:05;;;;;;;7.73;7.03;;;;;;;;;;5134187;27;20451;-76
2021/05/16 00:44:31;;;;;;;7.40;6.72;;;;;;;;;;5120239;27;20428;-76
2021/05/16 00:46:57;;;;;;;7.47;6.77;;;;;;;;;;5134011;27;20554;-76
2021/05/16 00:49:23;;;;;;;7.70;7.10;;;;;;;;;;5123586;27;20810;-75
2021/05/16 00:51:49;;;;;;;8.10;6.32;;;;;;;;;;5133556;27;20438;-77
2021/05/16 00:54:15;;;;;;;8.13;7.33;;;;;;;;;;5127158;27;20167;-76
2021/05/16 00:56:41;;;;;;;7.55;6.95;;;;;;;;;;5134170;27;20443;-76
2021/05/16 00:59:07;;;;;;;6.90;6.30;;;;;;;;;;5130326;27;20744;-76
2021/05/16 01:01:33;;;;;;;6.93;6.37;;;;;;;;;;5134191;27;20403;-76
2021/05/16 01:03:59;;;;;;;7.45;6.95;;;;;;;;;;5130693;27;20424;-75
2021/05/16 01:06:25;;;;;;;7.65;7.03;;;;;;;;;;5121494;27;20208;-77
2021/05/16 01:08:56;;;;;;;7.20;6.60;;;;;;;;;;5130738;27;20187;-77
2021/05/16 01:11:25;;;;;;;8.00;7.20;;;;;;;;;;5122206;27;20407;-76
2021/05/16 01:13:51;;;;;;;7.13;6.53;;;;;;;;;;5119968;27;20516;-76
2021/05/16 01:16:17;;;;;;;7.13;6.53;;;;;;;;;;5130988;27;20178;-76
2021/05/16 01:18:43;;;;;;;8.30;7.50;;;;;;;;;;5118582;27;20958;-75
2021/05/16 01:21:09;;;;;;;7.20;6.60;;;;;;;;;;5136253;27;20467;-76
2021/05/16 01:23:46;;;;;;;8.30;7.60;;;;;;;;;;5122305;27;20491;-76
2021/05/16 01:26:12;;;;;;;7.45;6.85;;;;;;;;;;5121809;27;20197;-77
2021/05/16 01:28:38;;;;;;;7.32;6.63;;;;;;;;;;5113144;27;20191;-76
2021/05/16 01:31:04;;;;;;;6.82;6.25;;;;;;;;;;5121936;27;20181;-76
2021/05/16 01:33:31;;;;;;;7.13;6.53;;;;;;;;;;5129979;27;20204;-76
2021/05/16 01:35:57;;;;;;;7.13;6.63;;;;;;;;;;5136487;27;20559;-77
2021/05/16 01:38:23;;;;;;;7.73;7.17;;;;;;;;;;5114311;27;20185;-75
2021/05/16 01:40:49;;;;;;;7.90;7.10;;;;;;;;;;5135593;27;20873;-75
2021/05/16 01:43:15;;;;;;;7.60;7.03;;;;;;;;;;5118758;27;20508;-75
2021/05/16 01:45:42;;;;;;;7.47;6.88;;;;;;;;;;5122002;27;20170;-75
2021/05/16 01:48:08;;;;;;;7.82;7.22;;;;;;;;;;5128272;27;20285;-76
2021/05/16 01:50:35;;;;;;;7.63;7.03;;;;;;;;;;5117279;27;20832;-76
2021/05/16 01:53:02;;;;;;;7.88;7.28;;;;;;;;;;5135774;27;20181;-76
2021/05/16 01:55:28;;;;;;;7.80;7.20;;;;;;;;;;5127181;27;20183;-75
2021/05/16 01:57:54;;;;;;;8.40;7.70;;;;;;;;;;5136067;27;20177;-76
2021/05/16 02:00:23;;;;;;;7.97;7.38;;;;;;;;;;5126153;27;20666;-78
2021/05/16 02:02:49;;;;;;;7.95;7.22;;;;;;;;;;5128701;27;20260;-77
2021/05/16 02:05:15;;;;;;;8.80;8.10;;;;;;;;;;5134480;27;20200;-75
2021/05/16 02:07:41;;;;;;;7.73;7.03;;;;;;;;;;5135650;27;20201;-75
2021/05/16 02:10:08;;;;;;;8.13;7.32;;;;;;;;;;5114890;27;20798;-76
2021/05/16 02:12:34;;;;;;;7.10;6.50;;;;;;;;;;5121716;27;20822;-77
2021/05/16 02:15:00;;;;;;;7.50;6.90;;;;;;;;;;5114620;27;20171;-77
2021/05/16 02:17:26;;;;;;;7.05;6.55;;;;;;;;;;5122247;27;20744;-74
2021/05/16 02:19:52;;;;;;;8.10;7.30;;;;;;;;;;5131481;27;20566;-76
2021/05/16 02:22:18;;;;;;;6.20;5.70;;;;;;;;;;5122100;27;20170;-76
2021/05/16 02:24:44;;;;;;;7.10;6.50;;;;;;;;;;5134879;27;20530;-75
2021/05/16 02:27:10;;;;;;;6.93;6.40;;;;;;;;;;5114492;28;20473;-75
2021/05/16 02:29:36;;;;;;;6.80;6.30;;;;;;;;;;5107620;27;20198;-75
2021/05/16 02:32:02;;;;;;;7.60;7.00;;;;;;;;;;5113878;27;20424;-75
2021/05/16 02:34:28;;;;;;;7.68;7.07;;;;;;;;;;5107691;27;20404;-76
2021/05/16 02:36:54;;;;;;;8.07;7.37;;;;;;;;;;5115261;27;20193;-76
2021/05/16 02:39:20;;;;;;;7.57;6.93;;;;;;;;;;5121319;27;20427;-75
2021/05/16 02:41:46;;;;;;;7.20;6.63;;;;;;;;;;5118587;27;20421;-77
2021/05/16 02:44:13;;;;;;;7.50;6.90;;;;;;;;;;5125598;27;20185;-76
2021/05/16 02:46:39;;;;;;;7.30;6.60;;;;;;;;;;5123273;27;20496;-76
2021/05/16 02:49:05;;;;;;;7.97;7.28;;;;;;;;;;5123678;27;20588;-75
2021/05/16 02:51:31;;;;;;;7.40;6.80;;;;;;;;;;5111382;27;20175;-76
2021/05/16 02:53:57;;;;;;;7.67;6.97;;;;;;;;;;5136251;27;20182;-75
2021/05/16 02:56:23;;;;;;;7.57;6.87;;;;;;;;;;5113926;27;20437;-78
2021/05/16 02:58:49;;;;;;;8.73;7.93;;;;;;;;;;5135702;27;20773;-75
2021/05/16 03:01:15;;;;;;;7.00;6.45;;;;;;;;;;5125782;27;20179;-75
2021/05/16 03:03:41;;;;;;;7.73;7.03;;;;;;;;;;5121409;27;20174;-76
2021/05/16 03:06:08;;;;;;;8.15;7.50;;;;;;;;;;5120034;27;20429;-73
2021/05/16 03:08:34;;;;;;;7.68;6.97;;;;;;;;;;5132373;27;20197;-76
2021/05/16 03:11:00;;;;;;;7.63;6.93;;;;;;;;;;5108978;28;20171;-77
2021/05/16 03:13:26;;;;;;;7.88;7.18;;;;;;;;;;5121130;27;20230;-78
2021/05/16 03:15:52;;;;;;;8.33;7.60;;;;;;;;;;5127000;27;20167;-75
2021/05/16 03:18:18;;;;;;;8.43;7.72;;;;;;;;;;5134211;27;20458;-75
2021/05/16 03:20:44;;;;;;;8.88;8.07;;;;;;;;;;5129571;27;20176;-75
2021/05/16 03:23:10;;;;;;;7.93;7.23;;;;;;;;;;5134407;27;20643;-77
2021/05/16 03:25:36;;;;;;;7.60;7.00;;;;;;;;;;5132993;27;20544;-76
2021/05/16 03:28:03;;;;;;;7.65;7.05;;;;;;;;;;5113468;28;20941;-78
2021/05/16 03:30:29;;;;;;;7.90;7.30;;;;;;;;;;5114413;27;20198;-74
2021/05/16 03:32:55;;;;;;;8.57;7.88;;;;;;;;;;5126568;27;20178;-76
2021/05/16 03:35:21;;;;;;;8.02;7.32;;;;;;;;;;5114226;28;20183;-77
2021/05/16 03:37:47;;;;;;;7.85;7.15;;;;;;;;;;5121307;27;20206;-74
2021/05/16 03:40:14;;;;;;;7.43;6.83;;;;;;;;;;5113339;28;20198;-76
2021/05/16 03:42:40;;;;;;;7.97;7.28;;;;;;;;;;5104057;27;20421;-76
2021/05/16 03:45:07;;;;;;;7.60;6.90;;;;;;;;;;5133755;27;20209;-75
2021/05/16 03:47:33;;;;;;;7.88;7.07;;;;;;;;;;5114094;27;20203;-75
2021/05/16 03:49:59;;;;;;;7.75;7.15;;;;;;;;;;5107097;28;20205;-74
2021/05/16 03:52:25;;;;;;;8.27;7.57;;;;;;;;;;5117734;28;20235;-74
2021/05/16 03:54:51;;;;;;;8.00;7.20;;;;;;;;;;5134125;28;20256;-75
2021/05/16 03:57:18;;;;;;;7.22;6.60;;;;;;;;;;5120109;28;20448;-75
2021/05/16 03:59:44;;;;;;;7.55;6.95;;;;;;;;;;5106886;28;20235;-76
2021/05/16 04:02:10;;;;;;;8.10;7.30;;;;;;;;;;5115530;28;20179;-76
2021/05/16 04:04:37;;;;;;;6.95;6.28;;;;;;;;;;5133570;28;20279;-76
2021/05/16 04:07:03;;;;;;;6.85;6.05;;;;;;;;;;5133941;28;20293;-75
2021/05/16 04:09:29;;;;;;;7.00;6.40;;;;;;;;;;5129430;28;20201;-76
2021/05/16 04:11:55;;;;;;;7.35;6.65;;;;;;;;;;5114482;28;20175;-75
2021/05/16 04:14:23;;;;;;;7.03;6.43;;;;;;;;;;5126360;28;20572;-74
2021/05/16 04:16:49;;;;;;;8.10;7.40;;;;;;;;;;5128225;28;20557;-76
2021/05/16 04:19:15;;;;;;;7.75;7.05;;;;;;;;;;5133720;28;20689;-75
2021/05/16 04:21:41;;;;;;;7.37;6.77;;;;;;;;;;5120941;28;20176;-75
2021/05/16 04:24:07;;;;;;;6.87;6.27;;;;;;;;;;5127443;28;20435;-77
2021/05/16 04:26:33;;;;;;;6.82;6.22;;;;;;;;;;5122808;28;20463;-76
2021/05/16 04:28:59;;;;;;;7.30;6.70;;;;;;;;;;5116636;28;20202;-76
2021/05/16 04:31:25;;;;;;;6.28;5.78;;;;;;;;;;5114588;28;20224;-76
2021/05/16 04:33:51;;;;;;;6.10;5.60;;;;;;;;;;5133441;28;20246;-76
2021/05/16 04:36:18;;;;;;;5.85;5.45;;;;;;;;;;5113767;28;20424;-76
2021/05/16 04:38:45;;;;;;;5.70;5.22;;;;;;;;;;5115583;28;20233;-76
2021/05/16 04:41:11;;;;;;;6.53;6.03;;;;;;;;;;5127755;28;20304;-80
2021/05/16 04:43:38;;;;;;;6.93;6.43;;;;;;;;;;5133771;28;20661;-77
2021/05/16 04:46:04;;;;;;;6.20;5.60;;;;;;;;;;5132592;28;20186;-75
2021/05/16 04:48:30;;;;;;;6.38;5.88;;;;;;;;;;5133453;28;20221;-74
2021/05/16 04:50:56;;;;;;;6.60;6.10;;;;;;;;;;5107935;28;20249;-79
2021/05/16 04:53:22;;;;;;;6.80;6.30;;;;;;;;;;5133598;28;20178;-77
2021/05/16 04:55:48;;;;;;;6.68;6.18;;;;;;;;;;5113708;27;20180;-76
2021/05/16 04:58:14;;;;;;;9.20;6.97;;;;;;;;;;5137273;27;20186;-77
2021/05/16 05:00:40;;;;;;;6.63;6.03;;;;;;;;;;5119596;27;20591;-76
2021/05/16 05:03:06;;;;;;;6.68;6.18;;;;;;;;;;5137205;27;20260;-76
2021/05/16 05:05:32;;;;;;;7.05;6.45;;;;;;;;;;5123031;27;20270;-76
2021/05/16 05:07:58;;;;;;;7.00;6.40;;;;;;;;;;5136833;27;20281;-75
2021/05/16 05:10:24;;;;;;;6.93;6.40;;;;;;;;;;5114613;27;20467;-75
2021/05/16 05:12:50;;;;;;;6.80;6.30;;;;;;;;;;5121238;27;20504;-76
2021/05/16 05:15:16;;;;;;;6.50;6.00;;;;;;;;;;5119837;27;20473;-76
2021/05/16 05:17:42;;;;;;;6.80;6.27;;;;;;;;;;5136810;27;20904;-76
2021/05/16 05:20:09;;;;;;;7.05;6.55;;;;;;;;;;5131919;27;20786;-75
2021/05/16 05:22:35;;;;;;;7.15;6.50;;;;;;;;;;5136937;27;20235;-76
2021/05/16 05:25:01;;;;;;;5.88;5.45;;;;;;;;;;5132007;27;20217;-76
2021/05/16 05:27:27;;;;;;;6.77;6.27;;;;;;;;;;5115951;28;20234;-76
2021/05/16 05:29:53;;;;;;;6.90;6.40;;;;;;;;;;5114722;27;20420;-75
2021/05/16 05:32:19;;;;;;;7.37;6.60;;;;;;;;;;5117042;27;20405;-74
2021/05/16 05:34:45;;;;;;;7.55;6.95;;;;;;;;;;5131214;27;20414;-75
2021/05/16 05:37:11;;;;;;;6.77;6.20;;;;;;;;;;5115717;28;20187;-75
2021/05/16 05:39:37;;;;;;;7.78;7.10;;;;;;;;;;5117638;27;20429;-76
2021/05/16 05:42:03;;;;;;;6.70;6.20;;;;;;;;;;5115827;28;20186;-75
2021/05/16 05:44:29;;;;;;;6.80;6.30;;;;;;;;;;5132684;27;20776;-74
2021/05/16 05:46:55;;;;;;;8.07;7.37;;;;;;;;;;5114239;27;20191;-77
2021/05/16 05:49:23;;;;;;;7.83;7.13;;;;;;;;;;5132156;27;20420;-76
2021/05/16 05:51:49;;;;;;;7.90;7.20;;;;;;;;;;5118752;27;20918;-77
2021/05/16 05:54:14;;;;;;;7.37;6.50;;;;;;;;;;5110191;27;20177;-76
2021/05/16 05:56:40;;;;;;;6.37;5.87;;;;;;;;;;5136308;27;20790;-76
2021/05/16 05:59:08;;;;;;;6.77;6.27;;;;;;;;;;5109487;27;20444;-76
2021/05/16 06:01:34;;;;;;;7.30;6.60;;;;;;;;;;5125723;27;20412;-75
2021/05/16 06:04:00;;;;;;;7.60;5.97;;;;;;;;;;5115793;27;20181;-76
2021/05/16 06:06:26;;;;;;;7.40;6.80;;;;;;;;;;5135578;27;20469;-76
2021/05/16 06:08:52;;;;;;;6.45;5.95;;;;;;;;;;5123358;27;20466;-75
2021/05/16 06:11:18;;;;;;;7.20;6.60;;;;;;;;;;5125242;27;20179;-75
2021/05/16 06:13:44;;;;;;;6.75;6.20;;;;;;;;;;5125419;27;20175;-77
2021/05/16 06:16:10;;;;;;;6.57;6.07;;;;;;;;;;5125587;27;20199;-76
2021/05/16 06:18:36;;;;;;;9.43;6.87;;;;;;;;;;5122585;27;20971;-76
2021/05/16 06:21:02;;;;;;;6.80;6.30;;;;;;;;;;5125451;27;20413;-76
2021/05/16 06:23:35;;;;;;;7.95;7.18;;;;;;;;;;5129240;27;20835;-77
2021/05/16 06:26:01;;;;;;;7.32;6.63;;;;;;;;;;5135681;27;20179;-77
2021/05/16 06:28:27;;;;;;;7.72;7.13;;;;;;;;;;5124038;27;20292;-75
2021/05/16 06:30:53;;;;;;;7.47;6.73;;;;;;;;;;5126207;27;20257;-76
2021/05/16 06:33:19;;;;;;;7.30;6.80;;;;;;;;;;5126991;27;20410;-74
2021/05/16 06:35:45;;;;;;;6.90;6.40;;;;;;;;;;5116167;27;20503;-75
2021/05/16 06:38:11;;;;;;;7.65;6.95;;;;;;;;;;5119580;27;20174;-76
2021/05/16 06:40:37;;;;;;;7.47;6.87;;;;;;;;;;5117976;27;20230;-77
2021/05/16 06:43:05;;;;;;;9.20;6.70;;;;;;;;;;5133676;27;20882;-78
2021/05/16 06:45:31;;;;;;;8.32;7.70;;;;;;;;;;5119014;27;20473;-77
2021/05/16 06:47:57;;;;;;;7.18;6.63;;;;;;;;;;5134690;27;20233;-77
2021/05/16 06:50:23;;;;;;;7.50;6.90;;;;;;;;;;5120437;27;20242;-76
2021/05/16 06:52:49;;;;;;;9.90;7.70;;;;;;;;;;5134843;27;20180;-77
2021/05/16 06:55:15;;;;;;;9.20;8.23;;;;;;;;;;5124461;27;20218;-76
2021/05/16 06:57:42;;;;;;;8.23;7.53;;;;;;;;;;5134533;27;20422;-76
2021/05/16 07:00:09;;;;;;;8.10;7.50;;;;;;;;;;5118175;27;20215;-76
2021/05/16 07:02:34;;;;;;;7.72;7.13;;;;;;;;;;5133943;27;20668;-77
2021/05/16 07:05:00;;;;;;;8.27;7.60;;;;;;;;;;5119526;27;20198;-76
2021/05/16 07:07:30;;;;;;;8.77;8.07;;;;;;;;;;5127437;27;20459;-76
2021/05/16 07:09:56;;;;;;;9.38;8.57;;;;;;;;;;5108065;28;20444;-75
2021/05/16 07:12:22;;;;;;;8.27;7.60;;;;;;;;;;5120237;27;20170;-75
2021/05/16 07:14:48;;;;;;;9.70;8.70;;;;;;;;;;5119751;27;20413;-74
2021/05/16 07:17:14;;;;;;;10.33;9.40;;;;;;;;;;5134332;27;20419;-76
2021/05/16 07:19:40;;;;;;;10.20;9.13;;;;;;;;;;5133944;27;20431;-75
2021/05/16 07:22:06;;;;;;;9.37;8.57;;;;;;;;;;5134261;27;20491;-75
2021/05/16 07:24:32;;;;;;;10.80;9.90;;;;;;;;;;5134214;27;20415;-77
2021/05/16 07:26:57;;;;;;;10.33;9.53;;;;;;;;;;5116746;27;20463;-76
2021/05/16 07:29:23;;;;;;;11.67;10.63;;;;;;;;;;5113594;28;20455;-77
2021/05/16 07:31:50;;;;;;;13.50;12.27;;;;;;;;;;5118697;27;20459;-76
2021/05/16 07:34:16;;;;;;;13.45;12.27;;;;;;;;;;5118625;27;20405;-75
2021/05/16 07:36:42;;;;;;;13.33;12.13;;;;;;;;;;5108306;28;20232;-76
2021/05/16 07:39:08;;;;;;;13.37;12.17;;;;;;;;;;5108914;27;20436;-76
2021/05/16 07:41:34;;;;;;;13.93;12.63;;;;;;;;;;5128159;27;20889;-76
2021/05/16 07:44:00;;;;;;;13.38;12.18;;;;;;;;;;5105818;28;20412;-75
2021/05/16 07:46:26;;;;;;;13.10;11.93;;;;;;;;;;5124363;27;20217;-75
2021/05/16 07:48:52;;;;;;;12.13;11.00;;;;;;;;;;5116948;27;20539;-76
2021/05/16 07:51:18;;;;;;;12.53;11.40;;;;;;;;;;5114879;28;20418;-76
2021/05/16 07:53:44;;;;;;;13.20;12.00;;;;;;;;;;5120366;28;20423;-76
2021/05/16 07:56:10;;;;;;;12.10;10.90;;;;;;;;;;5110766;28;20909;-76
2021/05/16 07:58:36;;;;;;;12.82;11.73;;;;;;;;;;5098575;28;20441;-76
2021/05/16 08:01:03;;;;;;;12.30;11.20;;;;;;;;;;5127055;28;20193;-75
2021/05/16 08:03:29;;;;;;;10.80;9.90;;;;;;;;;;5110341;28;20186;-76
2021/05/16 08:05:57;;;;;;;11.93;10.80;;;;;;;;;;5126964;28;20197;-76
2021/05/16 08:08:23;;;;;;;12.18;11.00;;;;;;;;;;5112749;28;20573;-75
2021/05/16 08:10:49;;;;;;;10.00;9.20;;;;;;;;;;5127603;28;20184;-76
2021/05/16 08:13:16;;;;;;;11.40;10.50;;;;;;;;;;5122761;28;20493;-75
2021/05/16 08:15:42;;;;;;;10.20;9.30;;;;;;;;;;5114266;28;20170;-75
2021/05/16 08:18:09;;;;;;;11.80;10.80;;;;;;;;;;5113432;28;20189;-76
2021/05/16 08:20:36;;;;;;;11.40;10.40;;;;;;;;;;5130194;28;20476;-76
2021/05/16 08:23:02;;;;;;;11.07;9.97;;;;;;;;;;5115401;28;20856;-77
2021/05/16 08:25:28;;;;;;;11.33;10.33;;;;;;;;;;5128649;28;20419;-75
2021/05/16 08:27:54;;;;;;;10.77;9.87;;;;;;;;;;5111983;28;20505;-79
2021/05/16 08:30:20;;;;;;;10.68;9.88;;;;;;;;;;5115547;27;20454;-78
2021/05/16 08:32:48;;;;;;;11.85;10.85;;;;;;;;;;5112911;27;20175;-77
2021/05/16 08:35:14;;;;;;;11.57;10.68;;;;;;;;;;5133227;27;20189;-75
2021/05/16 08:37:41;;;;;;;12.23;11.13;;;;;;;;;;5121281;27;20225;-75
2021/05/16 08:40:07;;;;;;;13.75;12.45;;;;;;;;;;5120846;27;20454;-76
2021/05/16 08:42:33;;;;;;;13.40;12.20;;;;;;;;;;5108929;27;20210;-76
2021/05/16 08:44:59;;;;;;;13.53;12.20;;;;;;;;;;5128197;27;20177;-76
2021/05/16 08:47:26;;;;;;;14.03;12.83;;;;;;;;;;5133547;27;20977;-76
2021/05/16 08:49:52;;;;;;;13.70;12.47;;;;;;;;;;5131884;27;20494;-78
2021/05/16 08:52:18;;;;;;;13.50;12.30;;;;;;;;;;5121396;27;20477;-77
2021/05/16 08:54:45;;;;;;;13.20;12.10;;;;;;;;;;5112442;27;20920;-77
2021/05/16 08:57:11;;;;;;;12.73;11.73;;;;;;;;;;5113822;27;20412;-77
2021/05/16 08:59:57;;;;;;;11.60;10.50;;;;;;;;;;5128959;27;20470;-77
2021/05/16 09:02:23;;;;;;;11.43;10.37;;;;;;;;;;5133229;27;20415;-77
2021/05/16 09:04:49;;;;;;;11.20;10.30;;;;;;;;;;5122351;27;20436;-75
2021/05/16 09:07:15;;;;;;;10.50;9.60;;;;;;;;;;5112227;27;20473;-77
2021/05/16 09:09:41;;;;;;;8.47;7.77;;;;;;;;;;5129786;27;21180;-75
2021/05/16 09:12:12;;;;;;;10.07;9.18;;;;;;;;;;5128846;27;20420;-78
2021/05/16 09:14:46;;;;;;;10.38;9.48;;;;;;;;;;5112581;27;20183;-76
2021/05/16 09:17:39;;;;;;;11.60;10.50;;;;;;;;;;5130744;27;20196;-76
2021/05/16 09:20:06;;;;;;;12.20;11.00;;;;;;;;;;5102708;28;20268;-76
2021/05/16 09:22:36;;;;;;;11.02;10.10;;;;;;;;;;5110788;28;20259;-73
2021/05/16 09:25:26;;;;;;;10.32;8.93;;;;;;;;;;5111990;28;20182;-75
2021/05/16 09:27:52;;;;;;;9.98;8.80;;;;;;;;;;5112739;27;20204;-77
2021/05/16 09:30:18;;;;;;;11.40;10.30;;;;;;;;;;5119411;27;20246;-77
2021/05/16 09:32:47;;;;;;;9.73;8.80;;;;;;;;;;5113968;27;20428;-77
2021/05/16 09:35:13;;;;;;;10.48;9.43;;;;;;;;;;5119963;27;20186;-77
2021/05/16 09:38:15;;;;;;;11.45;10.35;;;;;;;;;;5117235;27;20179;-76
2021/05/16 09:40:48;;;;;;;11.70;10.60;;;;;;;;;;5070393;28;20611;-75
2021/05/16 09:43:22;;;;;;;10.93;9.97;;;;;;;;;;5100747;27;20992;-77
2021/05/16 09:45:47;;;;;;;11.90;9.63;;;;;;;;;;5114266;27;20421;-78
2021/05/16 09:48:31;;;;;;;10.37;9.47;;;;;;;;;;5132453;27;20464;-77
2021/05/16 09:51:23;;;;;;;10.07;9.27;;;;;;;;;;5116115;27;20509;-76
2021/05/16 09:53:53;;;;;;;10.27;9.27;;;;;;;;;;5124737;27;20433;-76
2021/05/16 09:56:26;;;;;;;10.00;9.10;;;;;;;;;;5120358;27;20458;-77
2021/05/16 09:58:56;;;;;;;9.20;8.50;;;;;;;;;;5138463;27;20447;-74
2021/05/16 10:01:24;;;;;;;11.30;10.10;;;;;;;;;;5129489;27;20431;-76
2021/05/16 10:03:50;;;;;;;9.43;8.73;;;;;;;;;;5136887;27;20415;-77
2021/05/16 10:06:20;;;;;;;9.73;8.80;;;;;;;;;;5128591;27;20448;-77
2021/05/16 10:08:49;;;;;;;8.93;8.17;;;;;;;;;;5119566;27;20527;-75
2021/05/16 10:11:17;;;;;;;9.70;8.27;;;;;;;;;;5122472;27;20407;-74
2021/05/16 10:13:47;;;;;;;9.20;8.37;;;;;;;;;;5124319;27;20425;-77
2021/05/16 10:16:15;;;;;;;9.70;8.00;;;;;;;;;;5122461;27;20460;-76
2021/05/16 10:18:41;;;;;;;9.60;8.60;;;;;;;;;;5127148;27;20476;-77
2021/05/16 10:21:08;;;;;;;8.23;7.40;;;;;;;;;;5132126;27;20460;-76
2021/05/16 10:23:35;;;;;;;7.97;7.37;;;;;;;;;;5126336;27;20431;-78
2021/05/16 10:26:19;;;;;;;8.37;7.60;;;;;;;;;;5122861;27;20771;-75
2021/05/16 10:29:04;;;;;;;7.60;6.90;;;;;;;;;;5110661;27;21255;-77
2021/05/16 10:31:48;;;;;;;6.80;6.23;;;;;;;;;;5120567;27;20418;-76
2021/05/16 10:34:29;;;;;;;6.57;6.07;;;;;;;;;;5121503;27;20440;-76
2021/05/16 10:36:56;;;;;;;6.40;5.80;;;;;;;;;;5103985;27;20403;-77
2021/05/16 10:39:41;;;;;;;5.93;5.43;;;;;;;;;;5105896;27;20455;-74
2021/05/16 10:42:11;;;;;;;6.73;6.13;;;;;;;;;;5131557;27;20419;-76
2021/05/16 10:44:40;;;;;;;6.57;5.97;;;;;;;;;;5116426;27;20438;-75
2021/05/16 10:47:07;;;;;;;7.60;7.00;;;;;;;;;;5131370;27;20816;-73
2021/05/16 10:49:33;;;;;;;8.57;7.23;;;;;;;;;;5112225;27;20452;-73
2021/05/16 10:52:20;;;;;;;8.03;7.23;;;;;;;;;;5122475;27;20422;-74
2021/05/16 10:54:49;;;;;;;11.83;8.67;;;;;;;;;;5122472;27;20429;-74
2021/05/16 10:57:17;;;;;;;12.30;9.70;;;;;;;;;;5122592;27;20424;-74
2021/05/16 10:59:45;;;;;;;10.98;9.85;;;;;;;;;;5113370;27;20455;-72
2021/05/16 11:02:11;;;;;;;14.30;9.55;;;;;;;;;;5115867;27;20525;-73
2021/05/16 11:04:47;;;;;;;8.00;6.53;;;;;;;;;;5130982;27;20288;-73
2021/05/16 11:07:32;;;;;;;6.75;4.75;;;;;;;;;;5113366;27;20201;-76
2021/05/16 11:10:17;;;;;;;4.78;3.83;;;;;;;;;;5113288;27;20649;-73
2021/05/16 11:12:43;;;;;;;5.22;4.00;;;;;;;;;;5109711;27;20571;-74
2021/05/16 11:15:22;;;;;;;5.55;4.97;;;;;;;;;;5123384;27;20239;-74
2021/05/16 11:17:48;;;;;;;5.70;5.03;;;;;;;;;;5103929;27;20244;-73
2021/05/16 11:20:14;;;;;;;9.50;6.90;;;;;;;;;;5130769;27;20208;-73
2021/05/16 11:22:43;;;;;;;9.40;7.10;;;;;;;;;;5113343;27;20910;-73
2021/05/16 11:25:09;;;;;;;9.70;8.70;;;;;;;;;;5130553;27;20413;-73
2021/05/16 11:27:36;;;;;;;13.70;9.63;;;;;;;;;;5124585;27;20588;-73
2021/05/16 11:30:04;;;;;;;10.80;9.43;;;;;;;;;;5130594;27;20197;-73
2021/05/16 11:32:32;;;;;;;9.65;8.65;;;;;;;;;;5115045;27;20235;-72
2021/05/16 11:35:02;;;;;;;8.88;7.97;;;;;;;;;;5110205;28;20699;-73
2021/05/16 11:37:31;;;;;;;8.33;7.57;;;;;;;;;;5102982;27;20244;-73
2021/05/16 11:40:18;;;;;;;7.07;6.40;;;;;;;;;;5110624;28;20443;-73
2021/05/16 11:42:45;;;;;;;7.90;7.07;;;;;;;;;;5106192;27;20422;-73
2021/05/16 11:45:11;;;;;;;8.20;7.07;;;;;;;;;;5099001;28;20511;-74
2021/05/16 11:47:38;;;;;;;7.33;6.73;;;;;;;;;;5129025;27;20452;-74
2021/05/16 11:50:05;;;;;;;7.67;6.60;;;;;;;;;;5117341;27;20433;-75
2021/05/16 11:52:31;;;;;;;7.80;7.10;;;;;;;;;;5096768;28;20443;-74
2021/05/16 11:55:03;;;;;;;7.60;6.90;;;;;;;;;;5109513;28;20407;-75
2021/05/16 11:57:29;;;;;;;7.13;6.53;;;;;;;;;;5104087;28;20415;-74
2021/05/16 11:59:55;;;;;;;5.67;5.20;;;;;;;;;;5130151;28;20423;-74
2021/05/16 12:02:21;;;;;;;5.90;5.40;;;;;;;;;;5110258;28;20421;-74
2021/05/16 12:04:47;;;;;;;4.73;4.40;;;;;;;;;;5110654;28;20433;-74
2021/05/16 12:07:13;;;;;;;5.37;4.97;;;;;;;;;;5111243;27;20470;-75
2021/05/16 12:09:40;;;;;;;3.37;2.90;;;;;;;;;;5117186;27;20440;-75
2021/05/16 12:12:27;;;;;;;2.60;2.07;;;;;;;;;;5118103;27;20831;-75
2021/05/16 12:14:55;;;;;;;2.43;1.97;;;;;;;;;;5107216;27;20920;-75
2021/05/16 12:17:29;;;;;;;2.57;2.00;;;;;;;;;;5135079;27;20464;-76
2021/05/16 12:19:55;;;;;;;2.30;2.00;;;;;;;;;;5117435;27;21035;-76
2021/05/16 12:22:21;;;;;;;3.00;2.33;;;;;;;;;;5126811;27;20498;-74
2021/05/16 12:24:48;;;;;;;2.30;2.10;;;;;;;;;;5118709;27;20474;-75
2021/05/16 12:27:15;;;;;;;2.60;2.30;;;;;;;;;;5113223;28;20532;-75
2021/05/16 12:29:41;;;;;;;2.50;2.27;;;;;;;;;;5133357;27;20438;-74
2021/05/16 12:32:10;;;;;;;3.53;2.87;;;;;;;;;;5120819;27;20428;-74
2021/05/16 12:34:37;;;;;;;3.77;3.37;;;;;;;;;;5119715;27;20407;-75
2021/05/16 12:37:12;;;;;;;4.37;4.07;;;;;;;;;;5112116;27;20456;-76
2021/05/16 12:39:39;;;;;;;4.50;4.20;;;;;;;;;;5108070;27;20520;-76
2021/05/16 12:42:24;;;;;;;4.13;3.63;;;;;;;;;;5112218;27;20798;-75
2021/05/16 12:44:50;;;;;;;3.97;3.57;;;;;;;;;;5133710;27;20407;-76
2021/05/16 12:47:26;;;;;;;4.63;4.10;;;;;;;;;;5115469;27;20473;-76
2021/05/16 12:50:05;;;;;;;5.10;4.60;;;;;;;;;;5133579;27;20451;-75
2021/05/16 12:52:32;;;;;;;5.57;5.07;;;;;;;;;;5119081;27;20782;-77
2021/05/16 12:54:58;;;;;;;5.27;4.77;;;;;;;;;;5133616;27;20492;-75
2021/05/16 12:57:32;;;;;;;4.60;4.20;;;;;;;;;;5122581;27;20423;-77
2021/05/16 12:59:58;;;;;;;3.90;3.45;;;;;;;;;;5133589;27;20461;-74
2021/05/16 13:02:28;;;;;;;3.13;2.80;;;;;;;;;;5117527;27;20190;-76
2021/05/16 13:04:55;;;;;;;5.28;3.20;;;;;;;;;;5125087;27;20561;-77
2021/05/16 13:07:33;;;;;;;3.20;2.90;;;;;;;;;;5112069;28;20218;-76
2021/05/16 13:09:59;;;;;;;3.83;3.25;;;;;;;;;;5109854;27;20193;-74
2021/05/16 13:12:25;;;;;;;5.60;3.77;;;;;;;;;;5114372;27;20185;-73
2021/05/16 13:14:53;;;;;;;5.20;4.10;;;;;;;;;;5129359;27;20456;-74
2021/05/16 13:17:19;;;;;;;6.50;3.70;;;;;;;;;;5114226;27;20186;-76
2021/05/16 13:19:51;;;;;;;3.73;2.60;;;;;;;;;;5133550;27;20212;-76
2021/05/16 13:22:33;;;;;;;4.40;2.80;;;;;;;;;;5116605;27;20422;-75
2021/05/16 13:24:59;;;;;;;3.55;2.75;;;;;;;;;;5120589;27;20581;-75
2021/05/16 13:27:25;;;;;;;2.50;2.30;;;;;;;;;;5121334;27;20277;-77
2021/05/16 13:29:52;;;;;;;3.83;2.63;;;;;;;;;;5127001;27;20486;-76
2021/05/16 13:32:19;;;;;;;3.20;2.70;;;;;;;;;;5113153;27;20419;-76
2021/05/16 13:34:46;;;;;;;3.60;3.20;;;;;;;;;;5115093;27;20415;-76
2021/05/16 13:37:13;;;;;;;3.30;2.83;;;;;;;;;;5132897;27;20426;-77
2021/05/16 13:39:40;;;;;;;2.40;2.17;;;;;;;;;;5121410;27;20451;-75
2021/05/16 13:42:06;;;;;;;3.00;2.40;;;;;;;;;;5113952;27;20430;-76
2021/05/16 13:44:32;;;;;;;2.90;2.30;;;;;;;;;;5100330;28;20420;-75
2021/05/16 13:46:59;;;;;;;5.40;2.70;;;;;;;;;;5119569;27;20463;-78
2021/05/16 13:49:25;;;;;;;5.63;2.67;;;;;;;;;;5114951;28;20430;-76
2021/05/16 13:51:51;;;;;;;4.83;2.63;;;;;;;;;;5127510;27;20496;-77
2021/05/16 13:54:20;;;;;;;4.73;3.13;;;;;;;;;;5132598;27;20944;-75
2021/05/16 13:56:46;;;;;;;6.07;5.47;;;;;;;;;;5132574;27;20430;-76
2021/05/16 13:59:12;;;;;;;5.83;3.50;;;;;;;;;;5124495;27;20781;-79
2021/05/16 14:01:39;;;;;;;4.17;3.07;;;;;;;;;;5126263;27;20421;-78
2021/05/16 14:04:05;;;;;;;4.93;3.67;;;;;;;;;;5120623;27;20419;-78
2021/05/16 14:06:32;;;;;;;6.03;4.07;;;;;;;;;;5132299;27;20446;-78
2021/05/16 14:08:58;;;;;;;4.53;3.13;;;;;;;;;;5119007;27;20438;-77
2021/05/16 14:11:24;;;;;;;4.77;4.30;;;;;;;;;;5114176;27;20417;-79
2021/05/16 14:13:51;;;;;;;6.90;4.37;;;;;;;;;;5132083;27;20745;-78
2021/05/16 14:16:17;;;;;;;7.03;4.40;;;;;;;;;;5132360;27;20416;-78
2021/05/16 14:18:43;;;;;;;5.30;4.70;;;;;;;;;;5132215;27;20475;-78
2021/05/16 14:21:09;;;;;;;7.90;5.53;;;;;;;;;;5132126;27;20422;-76
2021/05/16 14:23:35;;;;;;;8.40;5.60;;;;;;;;;;5132308;27;20443;-75
2021/05/16 14:26:01;;;;;;;11.70;6.80;;;;;;;;;;5133505;27;20543;-78
2021/05/16 14:28:29;;;;;;;10.68;6.43;;;;;;;;;;5119720;27;20804;-74
2021/05/16 14:30:55;;;;;;;7.75;7.05;;;;;;;;;;5126164;27;20650;-76
2021/05/16 14:33:21;;;;;;;11.52;7.10;;;;;;;;;;5120880;27;20622;-75
2021/05/16 14:35:48;;;;;;;9.63;7.13;;;;;;;;;;5122795;27;20182;-78
2021/05/16 14:38:14;;;;;;;9.02;7.03;;;;;;;;;;5120887;27;20264;-75
2021/05/16 14:40:42;;;;;;;9.52;7.70;;;;;;;;;;5128547;27;20192;-76